AFL1405 UIII-ULLI
Flight info
| Callsign | AFL1405 |
|---|---|
| Flight time | N/A |
| Altitude | 34000 |
| Route | BOGRA5D BOGRA A815 TUTEK M97 LIBZI R497 LONKA A822 TEPNU R372 ADONI B800 KUMOD/K0839F360 N869 UNISO L870 DIKEP/K0837F380 L870 ROMUM T816 AMDEN P979 BEPOL BEPOL1V |
| Aircraft | A320/M-SDE3FGHIRWY/LB1 |
Departure
| Time | 2026-05-05 02:35 |
|---|---|
| Airport | Irkutsk International Airport (UIII) |
Arrival
| Time | N/A |
|---|---|
| Airport | Pulkovo Airport (ULLI) |
| Time | Latitude | Longitude | Altitude | Speed | Heading |
|---|---|---|---|---|---|
| 2026-05-05 02:14 | 52.27191 | 104.36443 | 1651 ft | 0 kts | 201° |
| 2026-05-05 02:28 | 52.27170 | 104.36430 | 1651 ft | 5 kts | 201° |
| 2026-05-05 02:28 | 52.27148 | 104.36440 | 1651 ft | 3 kts | 132° |
| 2026-05-05 02:28 | 52.27135 | 104.36486 | 1651 ft | 8 kts | 113° |
| 2026-05-05 02:29 | 52.27107 | 104.36611 | 1651 ft | 14 kts | 110° |
| 2026-05-05 02:29 | 52.27077 | 104.36745 | 1651 ft | 12 kts | 110° |
| 2026-05-05 02:29 | 52.27046 | 104.36878 | 1651 ft | 15 kts | 110° |
| 2026-05-05 02:29 | 52.27007 | 104.37049 | 1651 ft | 15 kts | 110° |
| 2026-05-05 02:30 | 52.26987 | 104.37186 | 1651 ft | 10 kts | 77° |
| 2026-05-05 02:30 | 52.26990 | 104.37325 | 1651 ft | 15 kts | 112° |
| 2026-05-05 02:30 | 52.26940 | 104.37513 | 1651 ft | 21 kts | 113° |
| 2026-05-05 02:30 | 52.26876 | 104.37756 | 1651 ft | 26 kts | 113° |
| 2026-05-05 02:31 | 52.26798 | 104.38050 | 1651 ft | 31 kts | 114° |
| 2026-05-05 02:31 | 52.26707 | 104.38388 | 1651 ft | 34 kts | 113° |
| 2026-05-05 02:31 | 52.26615 | 104.38736 | 1651 ft | 34 kts | 113° |
| 2026-05-05 02:31 | 52.26521 | 104.39088 | 1651 ft | 34 kts | 113° |
| 2026-05-05 02:32 | 52.26428 | 104.39440 | 1651 ft | 34 kts | 113° |
| 2026-05-05 02:32 | 52.26334 | 104.39793 | 1651 ft | 34 kts | 113° |
| 2026-05-05 02:32 | 52.26240 | 104.40146 | 1651 ft | 34 kts | 114° |
| 2026-05-05 02:32 | 52.26147 | 104.40498 | 1651 ft | 34 kts | 113° |
| 2026-05-05 02:33 | 52.26052 | 104.40851 | 1651 ft | 33 kts | 113° |
| 2026-05-05 02:33 | 52.25999 | 104.41053 | 1651 ft | 13 kts | 113° |
| 2026-05-05 02:33 | 52.26014 | 104.41172 | 1651 ft | 10 kts | 27° |
| 2026-05-05 02:33 | 52.26069 | 104.41211 | 1651 ft | 7 kts | 23° |
| 2026-05-05 02:34 | 52.26085 | 104.41223 | 1651 ft | 0 kts | 23° |
| 2026-05-05 02:34 | 52.26132 | 104.41256 | 1651 ft | 14 kts | 24° |
| 2026-05-05 02:34 | 52.26219 | 104.41293 | 1652 ft | 13 kts | 335° |
| 2026-05-05 02:34 | 52.26267 | 104.41145 | 1651 ft | 21 kts | 293° |
| 2026-05-05 02:35 | 52.26422 | 104.40566 | 1653 ft | 88 kts | 293° |
| 2026-05-05 02:35 | 52.26740 | 104.39372 | 1651 ft | 139 kts | 294° |
| 2026-05-05 02:35 | 52.27167 | 104.37784 | 2028 ft | 155 kts | 295° |
| 2026-05-05 02:35 | 52.27590 | 104.36170 | 2845 ft | 155 kts | 295° |
| 2026-05-05 02:36 | 52.28027 | 104.34526 | 3321 ft | 165 kts | 295° |
| 2026-05-05 02:36 | 52.28517 | 104.32690 | 3554 ft | 187 kts | 295° |
| 2026-05-05 02:36 | 52.29067 | 104.30624 | 3758 ft | 210 kts | 295° |
| 2026-05-05 02:36 | 52.29863 | 104.28494 | 4074 ft | 231 kts | 320° |
| 2026-05-05 02:37 | 52.31292 | 104.27185 | 4745 ft | 241 kts | 337° |
| 2026-05-05 02:37 | 52.32901 | 104.26329 | 5540 ft | 245 kts | 342° |
| 2026-05-05 02:37 | 52.34531 | 104.25589 | 6341 ft | 248 kts | 342° |
| 2026-05-05 02:37 | 52.36202 | 104.24813 | 7128 ft | 250 kts | 342° |
| 2026-05-05 02:38 | 52.37876 | 104.23982 | 7921 ft | 252 kts | 341° |
| 2026-05-05 02:38 | 52.39547 | 104.23101 | 8716 ft | 253 kts | 340° |
| 2026-05-05 02:38 | 52.41235 | 104.22169 | 9481 ft | 256 kts | 340° |
| 2026-05-05 02:38 | 52.42928 | 104.21206 | 10238 ft | 259 kts | 339° |
| 2026-05-05 02:39 | 52.44688 | 104.20189 | 10509 ft | 279 kts | 339° |
| 2026-05-05 02:39 | 52.46592 | 104.19075 | 10641 ft | 302 kts | 339° |
| 2026-05-05 02:39 | 52.48611 | 104.17891 | 11059 ft | 312 kts | 339° |
| 2026-05-05 02:39 | 52.50669 | 104.16683 | 11693 ft | 316 kts | 338° |
| 2026-05-05 02:40 | 52.52753 | 104.15464 | 12362 ft | 318 kts | 338° |
| 2026-05-05 02:40 | 52.54848 | 104.14242 | 13029 ft | 321 kts | 338° |
| 2026-05-05 02:40 | 52.56964 | 104.13004 | 13673 ft | 324 kts | 337° |
| 2026-05-05 02:40 | 52.59063 | 104.11770 | 14291 ft | 326 kts | 336° |
| 2026-05-05 02:41 | 52.61214 | 104.10498 | 14821 ft | 330 kts | 337° |
| 2026-05-05 02:41 | 52.63387 | 104.09212 | 15363 ft | 334 kts | 337° |
| 2026-05-05 02:41 | 52.65583 | 104.07910 | 15900 ft | 337 kts | 337° |
| 2026-05-05 02:41 | 52.67804 | 104.06594 | 16442 ft | 341 kts | 338° |
| 2026-05-05 02:42 | 52.70053 | 104.05261 | 16968 ft | 344 kts | 338° |
| 2026-05-05 02:42 | 52.72319 | 104.03919 | 17491 ft | 348 kts | 338° |
| 2026-05-05 02:42 | 52.74608 | 104.02566 | 18028 ft | 351 kts | 338° |
| 2026-05-05 02:42 | 52.76920 | 104.01197 | 18531 ft | 354 kts | 338° |
| 2026-05-05 02:43 | 52.79246 | 103.99820 | 18982 ft | 356 kts | 338° |
| 2026-05-05 02:43 | 52.81567 | 103.98446 | 19422 ft | 359 kts | 338° |
| 2026-05-05 02:43 | 52.83927 | 103.97046 | 19858 ft | 362 kts | 338° |
| 2026-05-05 02:43 | 52.86301 | 103.95629 | 20298 ft | 364 kts | 338° |
| 2026-05-05 02:44 | 52.88696 | 103.94197 | 20731 ft | 367 kts | 338° |
| 2026-05-05 02:44 | 52.91103 | 103.92758 | 21156 ft | 369 kts | 338° |
| 2026-05-05 02:44 | 52.93526 | 103.91305 | 21594 ft | 372 kts | 338° |
| 2026-05-05 02:44 | 52.95958 | 103.89841 | 22082 ft | 372 kts | 338° |
| 2026-05-05 02:45 | 52.98417 | 103.88363 | 22523 ft | 374 kts | 338° |
| 2026-05-05 02:45 | 53.00871 | 103.86892 | 22938 ft | 376 kts | 338° |
| 2026-05-05 02:45 | 53.03338 | 103.85412 | 23353 ft | 378 kts | 338° |
| 2026-05-05 02:45 | 53.05822 | 103.83915 | 23739 ft | 380 kts | 338° |
| 2026-05-05 02:46 | 53.08319 | 103.82403 | 24004 ft | 384 kts | 338° |
| 2026-05-05 02:46 | 53.10812 | 103.80894 | 24306 ft | 387 kts | 338° |
| 2026-05-05 02:46 | 53.13351 | 103.79359 | 24616 ft | 389 kts | 338° |
| 2026-05-05 02:46 | 53.15879 | 103.77694 | 24932 ft | 391 kts | 333° |
| 2026-05-05 02:47 | 53.18345 | 103.75763 | 25217 ft | 393 kts | 333° |
| 2026-05-05 02:47 | 53.20828 | 103.73823 | 25534 ft | 395 kts | 333° |
| 2026-05-05 02:47 | 53.23325 | 103.71874 | 25829 ft | 397 kts | 333° |
| 2026-05-05 02:47 | 53.25832 | 103.69921 | 26121 ft | 399 kts | 333° |
| 2026-05-05 02:48 | 53.28350 | 103.67953 | 26410 ft | 401 kts | 333° |
| 2026-05-05 02:48 | 53.30880 | 103.65969 | 26704 ft | 403 kts | 333° |
| 2026-05-05 02:48 | 53.33428 | 103.63970 | 26991 ft | 405 kts | 333° |
| 2026-05-05 02:48 | 53.35989 | 103.61957 | 27279 ft | 407 kts | 333° |
| 2026-05-05 02:49 | 53.38558 | 103.59929 | 27557 ft | 409 kts | 333° |
| 2026-05-05 02:49 | 53.41142 | 103.57884 | 27822 ft | 411 kts | 333° |
| 2026-05-05 02:49 | 53.43734 | 103.55833 | 28089 ft | 413 kts | 333° |
| 2026-05-05 02:49 | 53.46220 | 103.53549 | 28348 ft | 414 kts | 324° |
| 2026-05-05 02:50 | 53.48446 | 103.50485 | 28592 ft | 416 kts | 315° |
| 2026-05-05 02:50 | 53.50292 | 103.46743 | 28862 ft | 418 kts | 304° |
| 2026-05-05 02:50 | 53.51691 | 103.42448 | 29106 ft | 422 kts | 294° |
| 2026-05-05 02:50 | 53.52587 | 103.37726 | 29323 ft | 426 kts | 285° |
| 2026-05-05 02:51 | 53.53240 | 103.32855 | 29572 ft | 428 kts | 285° |
| 2026-05-05 02:51 | 53.53895 | 103.27963 | 29789 ft | 430 kts | 285° |
| 2026-05-05 02:51 | 53.54557 | 103.23050 | 30013 ft | 432 kts | 285° |
| 2026-05-05 02:51 | 53.55220 | 103.18124 | 30301 ft | 432 kts | 285° |
| 2026-05-05 02:52 | 53.55877 | 103.13203 | 30569 ft | 431 kts | 285° |
| 2026-05-05 02:52 | 53.56535 | 103.08272 | 30811 ft | 431 kts | 285° |
| 2026-05-05 02:52 | 53.57189 | 103.03347 | 31033 ft | 432 kts | 285° |
| 2026-05-05 02:52 | 53.57841 | 102.98406 | 31223 ft | 433 kts | 284° |
| 2026-05-05 02:53 | 53.58495 | 102.93455 | 31458 ft | 434 kts | 284° |
| 2026-05-05 02:53 | 53.59145 | 102.88497 | 31702 ft | 434 kts | 284° |
| 2026-05-05 02:53 | 53.59575 | 102.85205 | 31860 ft | 434 kts | 284° |
| 2026-05-05 02:53 | 53.60222 | 102.80244 | 32112 ft | 434 kts | 284° |
| 2026-05-05 02:54 | 53.60867 | 102.75272 | 32359 ft | 434 kts | 284° |
| 2026-05-05 02:54 | 53.61508 | 102.70308 | 32612 ft | 434 kts | 284° |
| 2026-05-05 02:54 | 53.62148 | 102.65333 | 32863 ft | 434 kts | 284° |
| 2026-05-05 02:54 | 53.62786 | 102.60367 | 33115 ft | 434 kts | 284° |
| 2026-05-05 02:55 | 53.63426 | 102.55393 | 33362 ft | 434 kts | 284° |
| 2026-05-05 02:55 | 53.64067 | 102.50427 | 33581 ft | 434 kts | 284° |
| 2026-05-05 02:55 | 53.64705 | 102.45447 | 33819 ft | 434 kts | 284° |
| 2026-05-05 02:55 | 53.65335 | 102.40473 | 34066 ft | 434 kts | 284° |
| 2026-05-05 02:56 | 53.65953 | 102.35553 | 34168 ft | 433 kts | 284° |
| 2026-05-05 02:56 | 53.67196 | 102.25569 | 34205 ft | 432 kts | 284° |
| 2026-05-05 02:57 | 53.68425 | 102.15735 | 34196 ft | 431 kts | 284° |
| 2026-05-05 02:57 | 53.69652 | 102.05832 | 34210 ft | 431 kts | 283° |
| 2026-05-05 02:58 | 53.70864 | 101.95906 | 34209 ft | 432 kts | 283° |
| 2026-05-05 02:58 | 53.72066 | 101.85969 | 34214 ft | 432 kts | 283° |
| 2026-05-05 02:59 | 53.73270 | 101.76040 | 34215 ft | 432 kts | 283° |
| 2026-05-05 02:59 | 53.74467 | 101.66095 | 34218 ft | 432 kts | 283° |
| 2026-05-05 03:00 | 53.75657 | 101.56136 | 34219 ft | 432 kts | 284° |
| 2026-05-05 03:00 | 53.76833 | 101.46174 | 34216 ft | 432 kts | 283° |
| 2026-05-05 03:01 | 53.77994 | 101.36259 | 34220 ft | 432 kts | 283° |
| 2026-05-05 03:01 | 53.79150 | 101.26294 | 34229 ft | 432 kts | 283° |
| 2026-05-05 03:02 | 53.80304 | 101.16294 | 34229 ft | 432 kts | 283° |
| 2026-05-05 03:02 | 53.81459 | 101.06300 | 34240 ft | 433 kts | 283° |
| 2026-05-05 03:03 | 53.82596 | 100.96292 | 34237 ft | 433 kts | 283° |
| 2026-05-05 03:03 | 53.83725 | 100.86277 | 34249 ft | 433 kts | 283° |
| 2026-05-05 03:04 | 53.84839 | 100.76330 | 34252 ft | 433 kts | 283° |
| 2026-05-05 03:04 | 53.85772 | 100.67928 | 34262 ft | 433 kts | 283° |